Time;durP1;ratioP1;P1;durP2;ratioP2;P2;SDS_P1;SDS_P2;PMS_P1;PMS_P2;Temp;Humidity;BMP_temperature;BMP_pressure;BME280_temperature;BME280_humidity;BME280_pressure;Samples;Min_cycle;Max_cycle;Signal;HPM_P1;HPM_P2
2022/01/04 00:01:57;;;;;;;6.63;4.10;;;7.20;12.80;;;;;;6329689;28;20287;-56
2022/01/04 00:05:00;;;;;;;4.83;4.00;;;7.20;12.40;;;;;;6338175;27;20236;-57
2022/01/04 00:08:07;;;;;;;6.07;3.40;;;7.30;12.50;;;;;;6332790;27;20271;-57
2022/01/04 00:11:17;;;;;;;4.20;3.93;;;7.30;11.80;;;;;;6335921;27;20315;-57
2022/01/04 00:14:20;;;;;;;4.73;3.73;;;7.30;11.30;;;;;;6333174;27;20323;-56
2022/01/04 00:17:23;;;;;;;4.40;4.00;;;7.30;11.70;;;;;;6338949;27;20262;-57
2022/01/04 00:20:26;;;;;;;3.60;3.50;;;7.30;12.50;;;;;;6342846;27;20322;-57
2022/01/04 00:23:29;;;;;;;5.37;3.63;;;7.30;12.50;;;;;;6336191;27;20238;-56
2022/01/04 00:26:33;;;;;;;3.70;3.40;;;7.30;12.10;;;;;;6337788;27;20377;-57
2022/01/04 00:29:35;;;;;;;4.47;4.10;;;7.20;12.40;;;;;;6329817;28;20853;-58
2022/01/04 00:32:38;;;;;;;5.03;3.60;;;7.20;12.40;;;;;;6330878;27;20538;-57
2022/01/04 00:35:41;;;;;;;3.70;3.40;;;7.20;12.40;;;;;;6333720;28;20755;-58
2022/01/04 00:38:44;;;;;;;3.90;3.70;;;7.30;13.80;;;;;;6334024;28;20293;-58
2022/01/04 00:41:48;;;;;;;3.80;3.60;;;7.20;13.20;;;;;;6327804;28;20240;-58
2022/01/04 00:44:51;;;;;;;4.10;3.80;;;7.20;12.40;;;;;;6333901;27;20712;-58
2022/01/04 00:51:25;;;;;;;4.37;4.07;;;7.20;13.60;;;;;;6232761;28;20266;-58
2022/01/04 00:54:28;;;;;;;4.20;3.67;;;7.20;14.50;;;;;;6339679;27;20241;-58
2022/01/04 00:57:32;;;;;;;7.77;3.57;;;7.00;14.50;;;;;;6332432;27;20739;-57
2022/01/04 01:00:35;;;;;;;3.70;3.60;;;7.10;14.70;;;;;;6333857;28;20235;-59
2022/01/04 01:03:38;;;;;;;4.03;3.60;;;7.20;13.60;;;;;;6327051;28;20237;-58
2022/01/04 01:06:41;;;;;;;4.33;3.90;;;7.10;13.70;;;;;;6330890;27;20240;-58
2022/01/04 01:09:58;;;;;;;3.43;3.30;;;7.10;13.80;;;;;;6331736;28;20673;-59
2022/01/04 01:13:03;;;;;;;3.83;3.53;;;7.10;14.30;;;;;;6331491;27;20739;-57
2022/01/04 01:16:07;;;;;;;3.83;3.60;;;7.10;13.60;;;;;;6333074;27;20236;-58
2022/01/04 01:19:10;;;;;;;3.77;3.50;;;7.20;14.40;;;;;;6337605;27;20302;-58
2022/01/04 01:22:12;;;;;;;5.70;3.87;;;7.00;14.60;;;;;;6328945;27;20772;-57
2022/01/04 01:25:16;;;;;;;3.60;3.40;;;6.90;15.50;;;;;;6336569;27;20255;-58
2022/01/04 01:28:21;;;;;;;4.20;3.87;;;6.90;15.70;;;;;;6331730;28;20736;-58
2022/01/04 01:31:24;;;;;;;4.00;3.80;;;6.90;15.10;;;;;;6326982;28;20232;-58
2022/01/04 01:34:27;;;;;;;4.13;3.83;;;7.00;15.30;;;;;;6331300;28;20270;-57
2022/01/04 01:37:30;;;;;;;3.90;3.67;;;7.20;15.70;;;;;;6333088;27;20712;-58
2022/01/04 01:40:33;;;;;;;5.10;3.47;;;7.00;15.40;;;;;;6327204;27;20235;-58
2022/01/04 01:43:37;;;;;;;3.40;3.10;;;7.30;14.30;;;;;;6333122;27;20228;-58
2022/01/04 01:46:40;;;;;;;3.50;3.30;;;7.10;13.60;;;;;;6330839;28;20735;-58
2022/01/04 01:49:44;;;;;;;3.77;3.47;;;7.00;13.70;;;;;;6338255;27;20236;-58
2022/01/04 01:52:49;;;;;;;3.63;3.23;;;7.10;14.00;;;;;;6332156;27;20305;-58
2022/01/04 01:55:52;;;;;;;3.67;3.47;;;7.00;14.30;;;;;;6332570;27;20236;-58
2022/01/04 01:58:56;;;;;;;3.40;3.30;;;7.10;13.80;;;;;;6331118;28;20240;-58
2022/01/04 02:01:59;;;;;;;3.67;3.57;;;7.00;14.20;;;;;;6332554;27;20315;-58
2022/01/04 02:05:03;;;;;;;3.77;3.47;;;7.10;14.60;;;;;;6325061;28;20730;-58
2022/01/04 02:08:07;;;;;;;3.67;3.40;;;7.00;14.60;;;;;;6328130;28;20227;-58
2022/01/04 02:11:11;;;;;;;3.50;3.30;;;7.30;15.60;;;;;;6330925;28;20245;-57
2022/01/04 02:14:16;;;;;;;3.17;3.03;;;7.00;15.60;;;;;;6332463;28;20304;-57
2022/01/04 02:17:19;;;;;;;4.57;3.47;;;6.90;15.60;;;;;;6331690;27;20619;-56
2022/01/04 02:20:23;;;;;;;3.40;3.20;;;6.90;14.90;;;;;;6343106;27;20649;-58
2022/01/04 02:23:25;;;;;;;3.50;3.20;;;7.10;15.70;;;;;;6331080;28;20291;-58
2022/01/04 02:26:31;;;;;;;3.07;2.97;;;6.90;15.80;;;;;;6333029;27;20274;-58
2022/01/04 02:29:34;;;;;;;4.60;3.20;;;7.10;16.40;;;;;;6331761;28;20242;-56
2022/01/04 02:32:37;;;;;;;3.70;3.20;;;7.20;16.40;;;;;;6331322;28;20236;-57
2022/01/04 02:35:41;;;;;;;4.13;3.23;;;7.00;15.80;;;;;;6331159;27;20381;-58
2022/01/04 02:38:44;;;;;;;3.23;3.13;;;7.00;16.30;;;;;;6330291;28;20336;-58
2022/01/04 02:41:47;;;;;;;3.00;2.90;;;6.90;16.20;;;;;;6330957;28;20278;-57
2022/01/04 02:44:50;;;;;;;3.27;3.17;;;7.00;16.90;;;;;;6331807;28;20370;-58
2022/01/04 02:47:53;;;;;;;3.60;3.30;;;7.00;17.20;;;;;;6334230;27;20249;-58
2022/01/04 02:50:57;;;;;;;3.43;3.23;;;7.30;17.60;;;;;;6333358;28;20296;-58
2022/01/04 02:54:00;;;;;;;3.03;2.93;;;7.30;16.50;;;;;;6331175;28;20830;-58
2022/01/04 02:57:03;;;;;;;3.47;3.23;;;7.20;16.40;;;;;;6325845;28;20533;-58
2022/01/04 03:00:09;;;;;;;3.57;3.27;;;7.10;16.40;;;;;;6330936;28;20312;-58
2022/01/04 03:03:12;;;;;;;3.30;3.10;;;7.10;16.40;;;;;;6329514;28;20588;-58
2022/01/04 03:06:16;;;;;;;3.27;3.00;;;7.10;16.40;;;;;;6325408;28;20365;-56
2022/01/04 03:09:19;;;;;;;3.20;3.10;;;7.00;17.10;;;;;;6331910;28;20250;-58
2022/01/04 03:12:22;;;;;;;3.43;3.20;;;7.10;16.40;;;;;;6319525;28;20311;-53
2022/01/04 03:15:24;;;;;;;3.43;3.30;;;7.10;16.70;;;;;;6331954;28;20312;-58
2022/01/04 03:18:27;;;;;;;4.00;3.27;;;7.10;17.00;;;;;;6338734;27;20819;-57
2022/01/04 03:21:32;;;;;;;3.40;3.20;;;7.10;17.20;;;;;;6333233;27;20377;-56
2022/01/04 03:24:34;;;;;;;3.80;3.40;;;7.10;17.10;;;;;;6329169;28;20915;-58
2022/01/04 03:27:37;;;;;;;3.00;2.90;;;7.00;17.80;;;;;;6330563;28;20324;-56
2022/01/04 03:30:40;;;;;;;3.40;3.20;;;7.10;18.00;;;;;;6329652;27;20378;-56
2022/01/04 03:33:43;;;;;;;3.43;3.40;;;7.10;17.80;;;;;;6330795;28;20389;-58
2022/01/04 03:36:47;;;;;;;4.27;3.73;;;7.20;17.30;;;;;;6322780;28;20276;-58
2022/01/04 03:39:50;;;;;;;3.87;3.67;;;7.40;18.40;;;;;;6327207;28;20804;-58
2022/01/04 03:42:53;;;;;;;3.40;3.23;;;7.10;17.90;;;;;;6329542;28;20389;-58
2022/01/04 03:45:55;;;;;;;3.73;3.53;;;7.10;18.20;;;;;;6332269;28;20239;-57
2022/01/04 03:48:58;;;;;;;3.63;3.53;;;7.00;18.70;;;;;;6330748;27;20577;-58
2022/01/04 03:52:03;;;;;;;4.13;3.80;;;7.40;19.50;;;;;;6325958;28;20517;-58
2022/01/04 03:55:08;;;;;;;3.43;3.23;;;7.20;19.20;;;;;;6326815;28;20558;-58
2022/01/04 03:58:11;;;;;;;4.73;3.50;;;7.00;21.10;;;;;;6327662;27;20329;-58
2022/01/04 04:01:14;;;;;;;3.30;3.10;;;7.10;21.20;;;;;;6339670;27;20368;-56
2022/01/04 04:04:19;;;;;;;3.70;3.50;;;7.20;21.30;;;;;;6334020;27;20288;-57
2022/01/04 04:07:23;;;;;;;3.43;3.33;;;7.00;21.40;;;;;;6331466;27;20236;-57
2022/01/04 04:10:26;;;;;;;3.30;3.10;;;7.00;21.70;;;;;;6332779;28;20234;-56
2022/01/04 04:13:28;;;;;;;3.60;3.37;;;7.00;21.80;;;;;;6334995;28;20239;-57
2022/01/04 04:16:33;;;;;;;3.47;2.83;;;7.00;22.30;;;;;;6338780;27;20238;-59
2022/01/04 04:19:36;;;;;;;3.77;3.50;;;7.00;22.00;;;;;;6329320;27;20262;-59
2022/01/04 04:22:40;;;;;;;3.30;3.17;;;7.00;22.70;;;;;;6334599;28;20680;-59
2022/01/04 04:25:43;;;;;;;3.40;3.17;;;6.90;22.60;;;;;;6333414;28;20235;-54
2022/01/04 04:28:45;;;;;;;3.23;3.07;;;6.90;23.10;;;;;;6330655;27;20240;-56
2022/01/04 04:31:48;;;;;;;3.60;3.40;;;6.90;23.80;;;;;;6316636;27;20572;-57
2022/01/04 04:34:51;;;;;;;3.40;3.17;;;6.90;24.10;;;;;;6323966;28;20728;-56
2022/01/04 04:37:55;;;;;;;4.73;3.47;;;6.80;24.00;;;;;;6328691;27;20259;-58
2022/01/04 04:40:58;;;;;;;3.40;3.27;;;6.90;24.10;;;;;;6325212;28;20730;-58
2022/01/04 04:44:00;;;;;;;4.13;3.37;;;6.90;24.10;;;;;;6329250;27;20323;-58
2022/01/04 04:47:05;;;;;;;3.40;3.30;;;6.90;24.20;;;;;;6331656;28;20228;-58
2022/01/04 04:50:08;;;;;;;3.40;3.30;;;6.90;24.10;;;;;;6325597;27;20484;-58
2022/01/04 04:53:12;;;;;;;3.73;3.60;;;6.90;24.50;;;;;;6330070;27;20369;-58
2022/01/04 04:56:15;;;;;;;3.97;3.67;;;6.80;25.10;;;;;;6324155;28;20699;-58
2022/01/04 04:59:18;;;;;;;4.10;3.90;;;6.90;25.30;;;;;;6331774;28;20822;-57
2022/01/04 05:02:20;;;;;;;3.40;3.40;;;6.70;25.20;;;;;;6334244;27;20377;-58
2022/01/04 05:05:23;;;;;;;4.30;4.10;;;6.80;25.50;;;;;;6329662;27;20236;-58
2022/01/04 05:08:27;;;;;;;4.23;3.90;;;6.70;25.80;;;;;;6330581;27;20293;-58
2022/01/04 05:11:30;;;;;;;4.57;4.27;;;7.00;27.40;;;;;;6329633;28;20228;-58
2022/01/04 05:14:33;;;;;;;4.30;4.10;;;6.80;27.50;;;;;;6328018;27;20719;-58
2022/01/04 05:17:36;;;;;;;4.73;4.50;;;6.70;27.80;;;;;;6336455;27;20385;-58
2022/01/04 05:20:39;;;;;;;4.63;4.37;;;6.60;27.70;;;;;;6329486;28;20238;-58
2022/01/04 05:23:43;;;;;;;4.67;4.47;;;6.60;28.00;;;;;;6325367;27;20236;-59
2022/01/04 05:26:45;;;;;;;4.70;4.50;;;6.60;28.10;;;;;;6330676;28;20537;-58
2022/01/04 05:29:49;;;;;;;5.40;5.03;;;6.70;28.40;;;;;;6325655;28;20474;-58
2022/01/04 05:32:51;;;;;;;4.73;4.53;;;6.50;28.90;;;;;;6329918;27;20292;-58
2022/01/04 05:35:54;;;;;;;5.37;4.90;;;6.50;29.20;;;;;;6330251;28;20235;-58
2022/01/04 05:38:58;;;;;;;6.60;5.30;;;6.60;29.40;;;;;;6329472;27;20565;-58
2022/01/04 05:42:01;;;;;;;5.60;5.07;;;6.50;29.70;;;;;;6327533;28;21118;-57
2022/01/04 05:45:05;;;;;;;5.37;5.00;;;6.50;31.00;;;;;;6336785;27;20365;-57
2022/01/04 05:48:11;;;;;;;6.70;4.70;;;6.60;30.20;;;;;;6331705;27;20239;-58
2022/01/04 05:51:13;;;;;;;5.30;5.00;;;6.80;30.10;;;;;;6330905;28;20232;-57
2022/01/04 05:54:17;;;;;;;7.27;5.20;;;6.60;30.00;;;;;;6327132;28;20321;-59
2022/01/04 05:57:20;;;;;;;5.63;5.10;;;6.50;30.20;;;;;;6330995;28;20240;-58
2022/01/04 06:00:23;;;;;;;5.20;4.90;;;6.70;30.90;;;;;;6323764;27;20801;-58
2022/01/04 06:03:25;;;;;;;4.83;4.63;;;6.50;30.90;;;;;;6335883;27;21519;-57
2022/01/04 06:06:28;;;;;;;6.13;5.50;;;6.50;31.70;;;;;;6327322;28;20430;-58
2022/01/04 06:09:41;;;;;;;5.90;5.40;;;6.50;31.70;;;;;;6322138;27;20229;-58
2022/01/04 06:16:04;;;;;;;5.87;5.40;;;6.70;31.90;;;;;;6327611;28;20294;-58
2022/01/04 06:19:07;;;;;;;7.67;5.30;;;6.80;32.00;;;;;;6329673;28;20231;-58
2022/01/04 06:22:10;;;;;;;5.80;5.40;;;6.60;31.90;;;;;;6332284;28;20334;-57
2022/01/04 06:25:16;;;;;;;6.20;5.73;;;6.60;31.90;;;;;;6324106;28;20942;-58
2022/01/04 06:28:18;;;;;;;5.87;5.57;;;6.80;32.00;;;;;;6330094;27;20267;-57
2022/01/04 06:31:21;;;;;;;11.43;6.80;;;6.60;32.00;;;;;;6333072;28;20702;-58
2022/01/04 06:34:24;;;;;;;6.87;6.20;;;6.60;33.00;;;;;;6326135;28;20654;-58
2022/01/04 06:37:27;;;;;;;8.57;7.00;;;6.60;33.00;;;;;;6327966;27;20499;-58
2022/01/04 06:40:31;;;;;;;9.80;7.83;;;6.70;34.20;;;;;;6321318;28;20293;-58
2022/01/04 06:43:34;;;;;;;7.80;7.17;;;6.60;35.20;;;;;;6332831;28;20315;-59
2022/01/04 06:46:38;;;;;;;9.50;8.37;;;6.60;36.20;;;;;;6330321;28;20401;-58
2022/01/04 06:49:41;;;;;;;8.07;7.47;;;6.60;36.70;;;;;;6326851;28;20239;-57
2022/01/04 06:52:45;;;;;;;7.90;7.30;;;6.70;37.90;;;;;;6326909;28;20766;-57
2022/01/04 06:55:52;;;;;;;10.27;9.27;;;6.60;37.30;;;;;;6327674;28;20723;-58
2022/01/04 06:58:55;;;;;;;10.70;9.60;;;6.80;37.10;;;;;;6328190;28;20359;-58
2022/01/04 07:01:57;;;;;;;9.90;9.00;;;6.70;37.40;;;;;;6326332;28;20365;-59
2022/01/04 07:05:00;;;;;;;11.03;9.93;;;6.70;37.60;;;;;;6329189;28;20235;-57
2022/01/04 07:08:05;;;;;;;10.90;9.80;;;6.60;38.00;;;;;;6329214;28;20246;-57
2022/01/04 07:11:09;;;;;;;12.53;9.33;;;6.70;38.10;;;;;;6330796;28;20298;-56
2022/01/04 07:14:11;;;;;;;9.13;8.27;;;6.70;38.60;;;;;;6329028;28;20260;-57
2022/01/04 07:17:14;;;;;;;8.60;7.83;;;6.80;39.00;;;;;;6331868;27;20263;-58
2022/01/04 07:20:17;;;;;;;8.80;8.10;;;6.70;39.00;;;;;;6332897;27;20328;-58
2022/01/04 07:23:19;;;;;;;8.53;7.93;;;6.80;38.90;;;;;;6330463;28;20356;-58
2022/01/04 07:26:24;;;;;;;8.70;7.77;;;6.80;38.30;;;;;;6329875;28;20223;-59
2022/01/04 07:29:26;;;;;;;8.30;7.50;;;6.90;37.20;;;;;;6329693;28;20242;-58
2022/01/04 07:32:29;;;;;;;8.80;7.87;;;7.00;38.10;;;;;;6331756;27;20877;-58
2022/01/04 07:35:32;;;;;;;7.80;7.00;;;7.00;36.00;;;;;;6333744;27;20323;-58
2022/01/04 07:38:35;;;;;;;9.27;8.07;;;7.00;36.00;;;;;;6327120;28;20334;-57
2022/01/04 07:41:39;;;;;;;9.20;8.40;;;7.00;35.60;;;;;;6331812;27;20247;-58
2022/01/04 07:44:42;;;;;;;9.63;7.77;;;7.00;36.50;;;;;;6333609;28;20234;-59
2022/01/04 07:47:45;;;;;;;9.73;8.90;;;7.30;35.70;;;;;;6329479;28;20469;-58
2022/01/04 07:50:49;;;;;;;8.03;7.53;;;7.30;35.40;;;;;;6329214;28;20382;-58
2022/01/04 07:53:56;;;;;;;8.77;7.90;;;7.10;35.40;;;;;;6326824;27;20824;-58
2022/01/04 07:57:00;;;;;;;8.70;7.77;;;7.20;36.30;;;;;;6328710;28;20712;-59
2022/01/04 08:00:04;;;;;;;7.97;7.23;;;7.30;32.90;;;;;;6332285;27;20232;-58
2022/01/04 08:03:10;;;;;;;8.20;7.60;;;7.30;32.90;;;;;;6329726;28;20319;-58
2022/01/04 08:06:13;;;;;;;8.47;7.67;;;7.50;32.60;;;;;;6325765;27;20259;-59
2022/01/04 08:09:16;;;;;;;8.43;7.83;;;7.60;32.70;;;;;;6319874;27;20231;-57
2022/01/04 08:12:20;;;;;;;7.83;7.33;;;7.40;32.60;;;;;;6331347;27;20314;-57
2022/01/04 08:15:23;;;;;;;8.80;8.00;;;7.40;32.10;;;;;;6325943;28;20313;-56
2022/01/04 08:18:26;;;;;;;9.53;8.60;;;7.60;31.20;;;;;;6336335;27;20327;-57
2022/01/04 08:21:29;;;;;;;8.53;7.93;;;7.50;30.20;;;;;;6335408;28;20243;-59
2022/01/04 08:24:31;;;;;;;8.53;7.83;;;7.50;30.00;;;;;;6336268;27;20236;-59
2022/01/04 08:27:36;;;;;;;7.27;6.70;;;7.40;30.00;;;;;;6334523;28;20241;-58
2022/01/04 08:30:38;;;;;;;7.30;6.80;;;7.50;29.20;;;;;;6331738;27;20238;-57
2022/01/04 08:33:44;;;;;;;8.03;7.33;;;7.80;29.00;;;;;;6328544;27;20224;-57
2022/01/04 08:36:47;;;;;;;8.47;6.60;;;7.50;29.20;;;;;;6328119;28;20513;-57
2022/01/04 08:39:50;;;;;;;7.47;6.97;;;7.50;29.40;;;;;;6325680;27;20303;-57
2022/01/04 08:42:54;;;;;;;7.67;7.07;;;7.60;29.60;;;;;;6333164;28;20232;-57
2022/01/04 08:45:56;;;;;;;7.23;6.53;;;7.90;28.90;;;;;;6332168;27;20320;-57
2022/01/04 08:48:59;;;;;;;6.77;6.30;;;7.70;28.80;;;;;;6325446;28;20244;-59
2022/01/04 08:52:03;;;;;;;7.00;6.40;;;7.70;28.70;;;;;;6330652;28;20357;-57
2022/01/04 08:55:07;;;;;;;8.53;7.73;;;7.70;28.40;;;;;;6324285;27;20821;-58
2022/01/04 08:58:11;;;;;;;7.37;6.90;;;7.70;28.70;;;;;;6334214;28;20599;-62
2022/01/04 09:01:13;;;;;;;5.80;5.30;;;7.70;28.40;;;;;;6329011;27;20228;-60
2022/01/04 09:04:16;;;;;;;6.97;6.47;;;7.80;26.00;;;;;;6331455;28;20362;-57
2022/01/04 09:07:19;;;;;;;5.23;4.83;;;7.80;26.30;;;;;;6330400;28;20242;-57
2022/01/04 09:10:22;;;;;;;5.77;5.40;;;7.90;24.50;;;;;;6331301;27;20236;-58
2022/01/04 09:13:33;;;;;;;6.73;5.43;;;8.00;23.50;;;;;;6332094;27;20232;-58
2022/01/04 09:19:56;;;;;;;5.40;5.10;;;7.90;23.00;;;;;;6331818;27;20385;-58
2022/01/04 09:22:59;;;;;;;5.70;5.17;;;7.90;22.10;;;;;;6325140;28;20253;-58
2022/01/04 09:26:01;;;;;;;5.87;5.47;;;7.80;20.80;;;;;;6330883;27;20281;-58
2022/01/04 09:29:06;;;;;;;6.37;6.07;;;7.80;21.90;;;;;;6329964;27;20239;-58
2022/01/04 09:32:13;;;;;;;6.13;5.00;;;7.80;22.40;;;;;;6330503;28;20725;-58
2022/01/04 09:35:16;;;;;;;5.10;4.87;;;7.80;21.10;;;;;;6325443;27;20739;-58
2022/01/04 09:38:19;;;;;;;5.27;4.90;;;7.90;21.60;;;;;;6331268;27;20243;-56
2022/01/04 09:41:22;;;;;;;5.70;5.40;;;7.90;21.10;;;;;;6323925;28;20311;-57
2022/01/04 09:44:27;;;;;;;5.30;5.00;;;7.90;20.90;;;;;;6333950;28;20307;-55
2022/01/04 09:47:30;;;;;;;6.00;5.70;;;7.90;22.60;;;;;;6327857;28;20242;-56
2022/01/04 09:50:35;;;;;;;6.93;6.43;;;7.80;24.00;;;;;;6330336;28;20251;-56
2022/01/04 09:53:38;;;;;;;6.50;6.00;;;7.80;24.70;;;;;;6334163;28;20369;-57
2022/01/04 09:56:40;;;;;;;6.60;6.10;;;7.90;24.80;;;;;;6333147;27;20767;-57
2022/01/04 09:59:44;;;;;;;6.37;5.97;;;7.80;25.00;;;;;;6331720;27;20235;-57
2022/01/04 10:02:49;;;;;;;6.20;5.93;;;7.80;25.80;;;;;;6329033;28;20311;-58
2022/01/04 10:06:02;;;;;;;5.87;5.57;;;8.10;26.30;;;;;;6332076;28;20363;-57
2022/01/04 10:09:08;;;;;;;5.70;5.40;;;7.80;26.50;;;;;;6325776;28;20240;-57
2022/01/04 10:12:12;;;;;;;6.40;5.80;;;7.90;25.80;;;;;;6328272;28;20614;-56
2022/01/04 10:15:30;;;;;;;5.33;5.10;;;7.80;26.40;;;;;;6330579;28;20304;-57
2022/01/04 10:18:32;;;;;;;6.87;6.20;;;7.80;27.90;;;;;;6329812;27;20489;-56
2022/01/04 10:21:35;;;;;;;6.87;6.10;;;7.70;28.50;;;;;;6325708;28;20365;-58
2022/01/04 10:24:38;;;;;;;6.37;6.00;;;7.80;28.80;;;;;;6328641;28;20323;-57
2022/01/04 10:27:43;;;;;;;7.20;6.67;;;7.80;29.60;;;;;;6334657;28;20232;-57
2022/01/04 10:30:47;;;;;;;6.63;6.23;;;7.70;30.70;;;;;;6325733;27;20232;-57
2022/01/04 10:33:53;;;;;;;6.73;6.13;;;7.70;31.00;;;;;;6324334;28;20232;-58
2022/01/04 10:36:56;;;;;;;6.40;6.00;;;7.70;32.80;;;;;;6326680;28;20323;-57
2022/01/04 10:40:06;;;;;;;6.23;5.47;;;7.70;32.80;;;;;;6325862;28;20820;-56
2022/01/04 10:43:12;;;;;;;5.70;5.30;;;7.90;29.00;;;;;;6331164;28;20257;-58
2022/01/04 10:46:19;;;;;;;5.90;5.60;;;7.80;28.90;;;;;;6327807;27;20296;-56
2022/01/04 10:49:24;;;;;;;5.93;5.43;;;7.80;29.50;;;;;;6329456;28;20243;-57
2022/01/04 10:52:32;;;;;;;6.60;5.67;;;7.80;29.50;;;;;;6329871;28;20228;-57
2022/01/04 10:55:36;;;;;;;5.27;4.97;;;7.80;30.00;;;;;;6328600;28;20312;-57
2022/01/04 10:58:42;;;;;;;4.80;4.60;;;7.80;29.90;;;;;;6333062;28;20310;-57
2022/01/04 11:01:47;;;;;;;6.33;4.43;;;7.80;29.50;;;;;;6331696;28;20281;-56
2022/01/04 11:05:11;;;;;;;4.20;4.07;;;7.80;29.60;;;;;;6327891;28;20224;-58
2022/01/04 11:08:17;;;;;;;4.00;3.90;;;7.90;28.60;;;;;;6325978;28;20251;-56
2022/01/04 11:11:20;;;;;;;4.40;4.20;;;7.90;28.10;;;;;;6336911;28;20410;-60
2022/01/04 11:14:23;;;;;;;3.93;3.83;;;8.00;26.30;;;;;;6334521;27;20654;-57
2022/01/04 11:17:27;;;;;;;5.13;4.93;;;7.90;27.30;;;;;;6329517;27;20756;-56
2022/01/04 11:20:30;;;;;;;4.27;4.17;;;7.90;28.30;;;;;;6337874;27;20647;-56
2022/01/04 11:23:33;;;;;;;4.40;4.20;;;7.90;28.60;;;;;;6335766;27;20231;-57
2022/01/04 11:26:40;;;;;;;3.90;3.80;;;7.80;28.90;;;;;;6335380;27;20270;-56
2022/01/04 11:29:48;;;;;;;4.53;4.23;;;7.80;28.50;;;;;;6333783;28;20228;-56
2022/01/04 11:32:56;;;;;;;4.83;4.63;;;7.80;28.10;;;;;;6327612;27;20239;-57
2022/01/04 11:36:00;;;;;;;4.03;3.83;;;7.80;28.80;;;;;;6334100;27;20387;-57
2022/01/04 11:39:23;;;;;;;3.83;3.63;;;7.80;29.10;;;;;;6334464;27;20314;-56
2022/01/04 11:42:38;;;;;;;4.73;4.53;;;7.80;28.20;;;;;;6333252;28;20336;-57
2022/01/04 11:45:44;;;;;;;4.50;4.30;;;7.80;29.20;;;;;;6328737;28;20684;-56
2022/01/04 11:48:49;;;;;;;3.90;3.80;;;7.70;29.80;;;;;;6334750;27;20728;-57
2022/01/04 11:51:52;;;;;;;4.13;3.87;;;7.70;29.60;;;;;;6327264;28;20716;-58
2022/01/04 11:55:16;;;;;;;4.57;4.37;;;7.80;29.90;;;;;;6333798;27;20257;-57
2022/01/04 11:58:21;;;;;;;4.63;4.33;;;7.80;30.20;;;;;;6324200;28;20315;-56
2022/01/04 12:01:27;;;;;;;4.63;4.43;;;7.80;30.40;;;;;;6335828;27;20444;-57
2022/01/04 12:04:53;;;;;;;5.30;5.00;;;7.90;30.90;;;;;;6328559;28;20227;-56
2022/01/04 12:07:56;;;;;;;5.57;5.10;;;7.80;30.80;;;;;;6305535;28;20777;-57
2022/01/04 12:10:59;;;;;;;5.00;4.70;;;7.90;31.20;;;;;;6335609;27;20389;-57
2022/01/04 12:14:03;;;;;;;4.80;4.60;;;7.90;31.70;;;;;;6326045;28;20522;-57
2022/01/04 12:17:09;;;;;;;4.63;4.37;;;7.90;31.10;;;;;;6327656;28;20584;-57
2022/01/04 12:20:48;;;;;;;4.67;4.47;;;8.00;29.00;;;;;;6330896;27;20224;-57
2022/01/04 12:23:51;;;;;;;5.93;5.53;;;8.10;29.10;;;;;;6327983;27;20273;-58
2022/01/04 12:27:11;;;;;;;5.40;5.10;;;8.00;28.50;;;;;;6335257;27;21060;-57
2022/01/04 12:30:25;;;;;;;5.47;5.17;;;8.00;28.70;;;;;;6333362;28;20295;-57
2022/01/04 12:33:37;;;;;;;5.60;5.10;;;8.00;28.70;;;;;;6305698;28;20428;-57
2022/01/04 12:36:43;;;;;;;5.50;5.00;;;8.00;29.20;;;;;;6308720;28;20237;-56
2022/01/04 12:39:49;;;;;;;5.30;5.00;;;8.00;28.70;;;;;;6327161;27;20232;-57
2022/01/04 12:42:54;;;;;;;5.60;5.20;;;7.90;30.20;;;;;;6330354;27;20278;-57
2022/01/04 12:45:58;;;;;;;5.93;5.50;;;7.80;31.50;;;;;;6333226;27;20319;-57
2022/01/04 12:49:03;;;;;;;6.03;5.63;;;7.90;32.30;;;;;;6332812;27;20231;-58
2022/01/04 12:52:10;;;;;;;6.30;5.70;;;7.80;32.80;;;;;;6325972;28;20316;-56
2022/01/04 12:55:14;;;;;;;5.47;5.17;;;7.80;32.90;;;;;;6333835;27;20361;-57
2022/01/04 12:58:16;;;;;;;5.53;5.33;;;7.80;31.90;;;;;;6327118;28;20240;-59
2022/01/04 13:01:23;;;;;;;5.83;5.43;;;7.90;32.20;;;;;;6333680;27;20231;-56
2022/01/04 13:04:29;;;;;;;6.37;5.93;;;7.80;31.80;;;;;;6332906;28;20235;-57
2022/01/04 13:07:35;;;;;;;5.90;5.50;;;7.80;32.90;;;;;;6324304;28;20239;-57
2022/01/04 13:10:38;;;;;;;6.30;5.90;;;7.90;33.70;;;;;;6333242;27;20324;-56
2022/01/04 13:13:41;;;;;;;5.27;5.07;;;7.90;33.00;;;;;;6328828;28;20319;-58
2022/01/04 13:16:43;;;;;;;5.73;5.33;;;7.90;33.00;;;;;;6318214;28;20259;-57
2022/01/04 13:19:47;;;;;;;6.70;6.13;;;7.90;33.00;;;;;;6327930;27;20251;-58
2022/01/04 13:22:51;;;;;;;6.47;6.13;;;7.90;32.70;;;;;;6332708;28;20345;-57
2022/01/04 13:25:59;;;;;;;6.30;5.90;;;7.90;34.60;;;;;;6333447;27;20322;-57
2022/01/04 13:29:02;;;;;;;6.80;6.33;;;7.90;33.80;;;;;;6333880;27;20693;-56
2022/01/04 13:32:06;;;;;;;7.30;6.70;;;7.90;34.00;;;;;;6331007;28;20235;-57
2022/01/04 13:35:11;;;;;;;7.60;7.00;;;7.80;34.40;;;;;;6325417;28;20694;-56
2022/01/04 13:38:19;;;;;;;7.43;7.03;;;7.90;33.50;;;;;;6330298;28;20601;-56
2022/01/04 13:41:32;;;;;;;7.53;6.80;;;7.90;33.70;;;;;;6332282;28;20228;-58
2022/01/04 13:44:54;;;;;;;8.30;7.53;;;7.90;34.40;;;;;;6322796;28;20237;-58
2022/01/04 13:47:59;;;;;;;7.67;7.30;;;7.90;35.00;;;;;;6328863;27;20240;-57
2022/01/04 13:51:04;;;;;;;7.60;7.10;;;7.80;36.10;;;;;;6321361;28;20232;-58
2022/01/04 13:54:12;;;;;;;7.90;7.43;;;7.90;35.80;;;;;;6327658;28;20467;-58
2022/01/04 13:57:16;;;;;;;8.23;7.60;;;7.80;35.90;;;;;;6333043;28;20244;-58
2022/01/04 14:00:28;;;;;;;7.97;7.57;;;7.80;36.40;;;;;;6332445;27;20225;-58
2022/01/04 14:03:31;;;;;;;8.23;7.73;;;7.70;37.70;;;;;;6326281;28;20224;-58
2022/01/04 14:06:37;;;;;;;8.00;7.50;;;7.80;37.70;;;;;;6331696;27;20247;-58
2022/01/04 14:09:45;;;;;;;8.90;8.07;;;7.80;37.50;;;;;;6330826;27;20239;-58
2022/01/04 14:12:48;;;;;;;7.80;7.40;;;7.70;38.30;;;;;;6326703;27;20293;-57
2022/01/04 14:16:06;;;;;;;8.40;7.80;;;7.70;37.60;;;;;;6328610;27;20672;-58
2022/01/04 14:19:11;;;;;;;8.13;7.63;;;7.90;38.40;;;;;;6324719;28;20228;-57
2022/01/04 14:22:18;;;;;;;7.33;7.03;;;7.80;38.60;;;;;;6326212;28;20234;-57
2022/01/04 14:25:23;;;;;;;7.80;7.40;;;7.60;37.60;;;;;;6327220;28;20239;-58
2022/01/04 14:28:27;;;;;;;8.00;7.50;;;7.70;37.70;;;;;;6331223;28;20243;-57
2022/01/04 14:31:29;;;;;;;7.20;6.67;;;7.80;37.60;;;;;;6332880;28;20227;-57
2022/01/04 14:34:32;;;;;;;7.67;7.27;;;7.80;36.20;;;;;;6322328;28;20323;-56
2022/01/04 14:37:36;;;;;;;7.63;7.10;;;7.80;35.00;;;;;;6321643;28;20232;-56
2022/01/04 14:40:42;;;;;;;8.13;7.40;;;7.80;36.10;;;;;;6329538;28;20391;-58
2022/01/04 14:43:45;;;;;;;7.37;7.00;;;7.70;35.70;;;;;;6329898;27;20357;-58
2022/01/04 14:46:47;;;;;;;7.10;6.60;;;7.70;36.30;;;;;;6329305;28;20242;-58
2022/01/04 14:49:50;;;;;;;6.50;6.20;;;7.70;36.20;;;;;;6330725;28;20314;-58
2022/01/04 14:52:59;;;;;;;6.73;6.33;;;7.60;36.20;;;;;;6330980;28;20375;-58
2022/01/04 14:56:07;;;;;;;6.97;6.57;;;7.90;36.90;;;;;;6320247;28;20370;-58
2022/01/04 14:59:10;;;;;;;6.27;5.97;;;7.70;35.90;;;;;;6324886;28;20240;-58
2022/01/04 15:02:14;;;;;;;6.67;6.37;;;7.60;35.20;;;;;;6329750;28;20393;-57
2022/01/04 15:05:17;;;;;;;6.70;6.30;;;7.60;36.20;;;;;;6317961;28;20227;-58
2022/01/04 15:08:20;;;;;;;6.90;6.50;;;7.60;36.10;;;;;;6324136;28;20735;-58
2022/01/04 15:11:24;;;;;;;6.90;6.60;;;7.60;36.00;;;;;;6326147;28;20236;-57
2022/01/04 15:14:27;;;;;;;7.10;6.50;;;7.70;35.60;;;;;;6317243;28;20695;-58
2022/01/04 15:17:30;;;;;;;7.43;6.93;;;7.10;35.20;;;;;;6330657;27;20308;-56
2022/01/04 15:20:35;;;;;;;7.43;6.97;;;7.80;35.70;;;;;;6332868;27;20242;-58
2022/01/04 15:23:37;;;;;;;8.23;7.67;;;7.60;35.70;;;;;;6326433;28;20250;-58
2022/01/04 15:26:41;;;;;;;8.40;7.40;;;7.70;35.70;;;;;;6325882;28;20311;-57
2022/01/04 15:29:44;;;;;;;8.10;7.50;;;7.70;35.50;;;;;;6329852;28;20286;-58
2022/01/04 15:32:47;;;;;;;8.33;7.73;;;7.70;35.40;;;;;;6322348;28;20326;-58
2022/01/04 15:35:50;;;;;;;9.60;7.77;;;7.70;34.90;;;;;;6323891;28;20232;-58
2022/01/04 15:38:52;;;;;;;7.83;7.30;;;7.70;34.70;;;;;;6324731;28;20240;-58
2022/01/04 15:41:57;;;;;;;8.33;7.73;;;7.70;34.70;;;;;;6318705;28;20228;-58
2022/01/04 15:45:02;;;;;;;8.40;7.80;;;7.70;35.30;;;;;;6323986;28;20229;-57
2022/01/04 15:48:05;;;;;;;8.40;7.80;;;7.70;34.50;;;;;;6331162;28;20729;-57
2022/01/04 15:51:09;;;;;;;7.93;7.40;;;7.70;32.80;;;;;;6306178;28;20306;-56
2022/01/04 15:54:12;;;;;;;9.27;8.53;;;7.50;34.70;;;;;;6332849;28;20629;-57
2022/01/04 15:57:16;;;;;;;9.83;8.13;;;7.60;34.60;;;;;;6332784;28;20625;-57
2022/01/04 16:00:20;;;;;;;8.67;8.00;;;7.70;34.50;;;;;;6333103;27;20284;-56
2022/01/04 16:03:23;;;;;;;8.83;8.23;;;7.70;34.20;;;;;;6329038;28;20471;-57
2022/01/04 16:06:26;;;;;;;8.43;7.83;;;7.20;33.50;;;;;;6325703;28;20228;-56
2022/01/04 16:09:30;;;;;;;9.43;8.20;;;7.70;33.90;;;;;;6331973;27;20720;-57
2022/01/04 16:12:56;;;;;;;9.57;8.43;;;7.60;33.10;;;;;;6332150;28;20243;-57
2022/01/04 16:16:04;;;;;;;10.23;9.30;;;7.60;34.50;;;;;;6333026;27;20232;-58
2022/01/04 16:22:28;;;;;;;10.10;9.13;;;7.60;32.70;;;;;;6333709;27;20777;-57
2022/01/04 16:25:31;;;;;;;9.80;8.80;;;7.60;32.70;;;;;;6332741;28;20224;-56
2022/01/04 16:28:35;;;;;;;9.87;9.10;;;7.60;32.10;;;;;;6331981;27;20463;-57